createdAt,value
2022-12-31T00:00:50.763Z,12.99
2022-12-31T00:01:50.660Z,12.97
2022-12-31T00:02:51.036Z,12.96
2022-12-31T00:03:50.721Z,12.99
2022-12-31T00:04:50.638Z,13.02
2022-12-31T00:05:50.842Z,13.03
2022-12-31T00:06:50.582Z,13.06
2022-12-31T00:07:50.598Z,13.07
2022-12-31T00:08:50.711Z,13.09
2022-12-31T00:09:50.902Z,13.06
2022-12-31T00:10:50.599Z,13.09
2022-12-31T00:11:50.635Z,13.09
2022-12-31T00:12:50.464Z,13.09
2022-12-31T00:13:50.524Z,13.11
2022-12-31T00:14:50.596Z,13.14
2022-12-31T00:15:50.607Z,13.11
2022-12-31T00:16:50.590Z,13.11
2022-12-31T00:17:50.573Z,13.14
2022-12-31T00:18:50.375Z,13.14
2022-12-31T00:19:50.337Z,13.14
2022-12-31T00:20:50.615Z,13.14
2022-12-31T00:21:50.331Z,13.12
2022-12-31T00:22:50.768Z,13.09
2022-12-31T00:23:50.317Z,13.06
2022-12-31T00:24:50.439Z,13.04
2022-12-31T00:25:50.471Z,13.02
2022-12-31T00:26:50.364Z,13.00
2022-12-31T00:27:50.401Z,13.00
2022-12-31T00:28:50.284Z,12.97
2022-12-31T00:29:50.248Z,12.99
2022-12-31T00:30:50.253Z,12.96
2022-12-31T00:31:50.453Z,12.95
2022-12-31T00:32:50.366Z,12.93
2022-12-31T00:33:50.275Z,12.92
2022-12-31T00:34:50.319Z,12.89
2022-12-31T00:35:50.364Z,12.87
2022-12-31T00:36:50.411Z,12.87
2022-12-31T00:37:50.185Z,12.82
2022-12-31T00:38:50.229Z,12.81
2022-12-31T00:39:50.196Z,12.81
2022-12-31T00:40:50.200Z,12.78
2022-12-31T00:41:50.396Z,12.78
2022-12-31T00:42:50.223Z,12.78
2022-12-31T00:43:50.315Z,12.77
2022-12-31T00:44:50.144Z,12.75
2022-12-31T00:45:50.162Z,12.75
2022-12-31T00:46:50.109Z,12.75
2022-12-31T00:47:50.059Z,12.75
2022-12-31T00:48:50.064Z,12.77
2022-12-31T00:49:50.225Z,12.77
2022-12-31T00:50:50.264Z,12.77
2022-12-31T00:51:50.275Z,12.78
2022-12-31T00:52:50.091Z,12.78
2022-12-31T00:53:50.050Z,12.78
2022-12-31T00:54:50.110Z,12.79
2022-12-31T00:55:50.281Z,12.79
2022-12-31T00:56:50.128Z,12.78
2022-12-31T00:57:49.975Z,12.78
2022-12-31T00:58:50.235Z,12.77
2022-12-31T00:59:50.177Z,12.77
2022-12-31T01:00:50.232Z,12.75
2022-12-31T01:01:50.293Z,12.75
2022-12-31T01:02:50.084Z,12.77
2022-12-31T01:03:50.089Z,12.75
2022-12-31T01:04:49.926Z,12.77
2022-12-31T01:05:49.887Z,12.75
2022-12-31T01:06:50.094Z,12.77
2022-12-31T01:07:50.283Z,12.75
2022-12-31T01:08:50.144Z,12.77
2022-12-31T01:09:49.850Z,12.74
2022-12-31T01:10:50.055Z,12.77
2022-12-31T01:11:49.911Z,12.77
2022-12-31T01:12:50.116Z,12.75
2022-12-31T01:13:49.959Z,12.74
2022-12-31T01:14:49.839Z,12.74
2022-12-31T01:15:50.073Z,12.71
2022-12-31T01:16:49.851Z,12.71
2022-12-31T01:17:49.763Z,12.74
2022-12-31T01:18:49.812Z,12.71
2022-12-31T01:19:49.802Z,12.70
2022-12-31T01:20:49.963Z,12.75
2022-12-31T01:21:49.869Z,12.75
2022-12-31T01:22:49.937Z,12.75
2022-12-31T01:23:50.020Z,12.77
2022-12-31T01:24:49.770Z,12.78
2022-12-31T01:25:49.790Z,12.81
2022-12-31T01:26:49.893Z,12.78
2022-12-31T01:27:50.041Z,12.81
2022-12-31T01:28:49.681Z,12.79
2022-12-31T01:29:49.691Z,12.79
2022-12-31T01:30:50.320Z,12.78
2022-12-31T01:31:49.751Z,12.81
2022-12-31T01:32:49.931Z,12.81
2022-12-31T01:33:49.763Z,12.87
2022-12-31T01:34:49.603Z,12.85
2022-12-31T01:35:49.678Z,12.87
2022-12-31T01:36:49.672Z,12.85
2022-12-31T01:37:49.632Z,12.88
2022-12-31T01:38:49.626Z,12.88
2022-12-31T01:39:49.595Z,12.88
2022-12-31T01:40:49.770Z,12.88
2022-12-31T01:41:49.689Z,12.89
2022-12-31T01:42:49.513Z,12.92
2022-12-31T01:43:49.517Z,12.93
2022-12-31T01:44:49.548Z,12.89
2022-12-31T01:45:49.501Z,12.88
2022-12-31T01:46:49.516Z,12.87
2022-12-31T01:47:49.717Z,12.89
2022-12-31T01:48:49.503Z,12.89
2022-12-31T01:49:49.469Z,12.89
2022-12-31T01:50:49.488Z,12.89
2022-12-31T01:51:49.458Z,12.95
2022-12-31T01:52:49.529Z,12.89
2022-12-31T01:53:49.408Z,12.93
2022-12-31T01:54:49.495Z,12.95
2022-12-31T01:55:49.607Z,12.95
2022-12-31T01:56:49.444Z,12.95
2022-12-31T01:57:49.518Z,12.93
2022-12-31T01:58:49.606Z,12.95
2022-12-31T01:59:49.385Z,12.95
2022-12-31T02:00:49.505Z,12.96
2022-12-31T02:01:49.489Z,12.96
2022-12-31T02:02:49.503Z,12.97
2022-12-31T02:03:49.541Z,12.97
2022-12-31T02:04:49.293Z,12.99
2022-12-31T02:05:49.506Z,13.02
2022-12-31T02:06:49.293Z,13.03
2022-12-31T02:07:49.271Z,13.07
2022-12-31T02:08:49.464Z,13.07
2022-12-31T02:09:49.445Z,13.17
2022-12-31T02:10:49.363Z,13.20
2022-12-31T02:11:49.220Z,13.17
2022-12-31T02:12:49.240Z,13.20
2022-12-31T02:13:52.559Z,13.21
2022-12-31T02:14:49.287Z,13.24
2022-12-31T02:15:49.248Z,13.30
2022-12-31T02:16:49.231Z,13.32
2022-12-31T02:17:49.205Z,13.33
2022-12-31T02:18:49.207Z,13.36
2022-12-31T02:19:49.249Z,13.36
2022-12-31T02:20:49.274Z,13.38
2022-12-31T02:21:49.149Z,13.43
2022-12-31T02:22:49.128Z,13.46
2022-12-31T02:23:49.174Z,13.49
2022-12-31T02:24:49.403Z,13.55
2022-12-31T02:25:49.083Z,13.58
2022-12-31T02:26:49.220Z,13.55
2022-12-31T02:27:49.113Z,13.54
2022-12-31T02:28:49.259Z,13.54
2022-12-31T02:29:49.249Z,13.55
2022-12-31T02:30:49.078Z,13.55
2022-12-31T02:31:49.115Z,13.56
2022-12-31T02:32:49.071Z,13.62
2022-12-31T02:33:49.212Z,13.65
2022-12-31T02:34:49.229Z,13.67
2022-12-31T02:35:48.991Z,13.71
2022-12-31T02:36:48.979Z,13.77
2022-12-31T02:37:48.974Z,13.79
2022-12-31T02:38:48.996Z,13.79
2022-12-31T02:39:48.970Z,13.79
2022-12-31T02:40:49.345Z,13.81
2022-12-31T02:41:48.936Z,13.84
2022-12-31T02:42:55.130Z,13.88
2022-12-31T02:43:48.939Z,13.88
2022-12-31T02:44:48.987Z,13.89
2022-12-31T02:45:49.075Z,13.88
2022-12-31T02:46:49.107Z,13.91
2022-12-31T02:47:49.086Z,13.95
2022-12-31T02:48:48.944Z,14.04
2022-12-31T02:49:49.025Z,14.12
2022-12-31T02:50:48.965Z,14.12
2022-12-31T02:51:48.959Z,14.10
2022-12-31T02:52:49.036Z,14.13
2022-12-31T02:53:48.821Z,14.27
2022-12-31T02:54:48.817Z,14.32
2022-12-31T02:55:48.845Z,14.34
2022-12-31T02:56:48.843Z,14.32
2022-12-31T02:57:48.798Z,14.31
2022-12-31T02:58:48.817Z,14.28
2022-12-31T02:59:48.880Z,14.27
2022-12-31T03:00:48.997Z,14.31
2022-12-31T03:01:48.865Z,14.38
2022-12-31T03:02:48.963Z,14.54
2022-12-31T03:03:48.719Z,14.65
2022-12-31T03:04:48.713Z,14.65
2022-12-31T03:05:48.699Z,14.62
2022-12-31T03:06:48.686Z,14.67
2022-12-31T03:07:48.676Z,14.68
2022-12-31T03:08:48.982Z,14.68
2022-12-31T03:09:48.650Z,14.64
2022-12-31T03:10:48.626Z,14.68
2022-12-31T03:11:48.693Z,14.69
2022-12-31T03:12:48.818Z,14.67
2022-12-31T03:13:48.935Z,14.67
2022-12-31T03:14:48.643Z,14.61
2022-12-31T03:15:48.802Z,14.60
2022-12-31T03:16:48.535Z,14.60
2022-12-31T03:17:48.562Z,14.53
2022-12-31T03:18:48.572Z,14.49
2022-12-31T03:19:48.893Z,14.42
2022-12-31T03:20:48.597Z,14.35
2022-12-31T03:21:48.516Z,14.32
2022-12-31T03:22:48.611Z,14.29
2022-12-31T03:23:48.710Z,14.28
2022-12-31T03:24:48.502Z,14.24
2022-12-31T03:25:48.653Z,14.21
2022-12-31T03:26:48.666Z,14.20
2022-12-31T03:27:48.609Z,14.25
2022-12-31T03:28:48.800Z,14.31
2022-12-31T03:29:48.493Z,14.31
2022-12-31T03:30:48.454Z,14.29
2022-12-31T03:31:48.662Z,14.28
2022-12-31T03:32:48.466Z,14.28
2022-12-31T03:33:48.463Z,14.28
2022-12-31T03:34:48.436Z,14.27
2022-12-31T03:35:48.419Z,14.25
2022-12-31T03:36:48.561Z,14.24
2022-12-31T03:37:48.369Z,14.27
2022-12-31T03:38:52.566Z,14.32
2022-12-31T03:39:48.332Z,14.37
2022-12-31T03:40:48.470Z,14.38
2022-12-31T03:41:48.329Z,14.47
2022-12-31T03:42:48.383Z,14.53
2022-12-31T03:43:48.301Z,14.54
2022-12-31T03:44:48.322Z,14.54
2022-12-31T03:45:48.302Z,14.54
2022-12-31T03:46:48.371Z,14.62
2022-12-31T03:47:48.371Z,14.67
2022-12-31T03:48:48.411Z,14.74
2022-12-31T03:49:48.249Z,14.78
2022-12-31T03:50:48.438Z,14.90
2022-12-31T03:51:48.252Z,14.91
2022-12-31T03:52:48.411Z,14.90
2022-12-31T03:53:48.192Z,14.90
2022-12-31T03:54:48.248Z,14.93
2022-12-31T03:55:48.294Z,14.90
2022-12-31T03:56:49.617Z,14.90
2022-12-31T03:57:48.170Z,14.98
2022-12-31T03:58:48.269Z,14.98
2022-12-31T03:59:48.129Z,14.98
2022-12-31T04:00:48.253Z,15.02
2022-12-31T04:01:48.257Z,14.99
2022-12-31T04:02:48.170Z,14.95
2022-12-31T04:03:48.284Z,14.91
2022-12-31T04:04:48.282Z,14.90
2022-12-31T04:05:48.067Z,14.87
2022-12-31T04:06:48.054Z,14.90
2022-12-31T04:07:48.066Z,14.91
2022-12-31T04:08:48.072Z,14.98
2022-12-31T04:09:48.035Z,14.95
2022-12-31T04:10:48.037Z,14.90
2022-12-31T04:11:48.195Z,14.88
2022-12-31T04:12:48.192Z,14.87
2022-12-31T04:13:48.025Z,14.87
2022-12-31T04:14:48.112Z,14.88
2022-12-31T04:15:47.989Z,14.95
2022-12-31T04:16:48.009Z,14.98
2022-12-31T04:17:48.628Z,14.95
2022-12-31T04:18:47.958Z,14.94
2022-12-31T04:19:47.912Z,14.99
2022-12-31T04:20:48.098Z,14.99
2022-12-31T04:21:47.901Z,14.98
2022-12-31T04:22:47.973Z,14.95
2022-12-31T04:23:47.918Z,15.01
2022-12-31T04:24:48.047Z,15.05
2022-12-31T04:25:47.851Z,15.05
2022-12-31T04:26:47.947Z,15.02
2022-12-31T04:27:48.060Z,14.99
2022-12-31T04:28:48.153Z,14.98
2022-12-31T04:29:47.810Z,14.99
2022-12-31T04:30:47.858Z,15.01
2022-12-31T04:31:47.919Z,15.01
2022-12-31T04:32:48.052Z,15.02
2022-12-31T04:33:47.808Z,15.01
2022-12-31T04:34:47.789Z,14.98
2022-12-31T04:35:48.144Z,14.99
2022-12-31T04:36:47.746Z,14.99
2022-12-31T04:37:47.913Z,14.99
2022-12-31T04:38:47.762Z,15.01
2022-12-31T04:39:47.913Z,14.98
2022-12-31T04:40:47.849Z,15.02
2022-12-31T04:41:47.707Z,15.11
2022-12-31T04:42:47.723Z,15.13
2022-12-31T04:43:47.856Z,15.11
2022-12-31T04:44:47.691Z,15.06
2022-12-31T04:45:47.931Z,15.06
2022-12-31T04:46:47.660Z,15.06
2022-12-31T04:47:47.624Z,15.05
2022-12-31T04:48:47.763Z,15.08
2022-12-31T04:49:47.592Z,15.08
2022-12-31T04:50:47.682Z,15.11
2022-12-31T04:51:47.630Z,15.11
2022-12-31T04:52:47.766Z,15.13
2022-12-31T04:53:47.571Z,15.17
2022-12-31T04:54:47.749Z,15.19
2022-12-31T04:55:47.604Z,15.26
2022-12-31T04:56:47.608Z,15.30
2022-12-31T04:57:47.556Z,15.30
2022-12-31T04:58:47.522Z,15.30
2022-12-31T04:59:47.531Z,15.28
2022-12-31T05:00:47.524Z,15.31
2022-12-31T05:01:47.798Z,15.30
2022-12-31T05:02:47.867Z,15.36
2022-12-31T05:03:47.479Z,15.38
2022-12-31T05:04:47.599Z,15.35
2022-12-31T05:05:47.595Z,15.30
2022-12-31T05:06:47.601Z,15.30
2022-12-31T05:07:47.461Z,15.36
2022-12-31T05:08:47.521Z,15.39
2022-12-31T05:09:47.562Z,15.36
2022-12-31T05:10:47.391Z,15.38
2022-12-31T05:11:47.422Z,15.33
2022-12-31T05:12:47.584Z,15.35
2022-12-31T05:13:47.348Z,15.36
2022-12-31T05:14:48.066Z,15.38
2022-12-31T05:15:47.380Z,15.41
2022-12-31T05:16:47.558Z,15.38
2022-12-31T05:17:47.293Z,15.41
2022-12-31T05:18:47.310Z,15.41
2022-12-31T05:19:47.432Z,15.45
2022-12-31T05:20:47.333Z,15.51
2022-12-31T05:21:47.412Z,15.54
2022-12-31T05:22:47.504Z,15.61
2022-12-31T05:23:47.392Z,15.66
2022-12-31T05:24:47.263Z,15.66
2022-12-31T05:25:47.354Z,15.64
2022-12-31T05:26:47.700Z,15.59
2022-12-31T05:27:47.204Z,15.52
2022-12-31T05:28:47.214Z,15.51
2022-12-31T05:29:47.208Z,15.51
2022-12-31T05:30:47.451Z,15.63
2022-12-31T05:31:47.298Z,15.67
2022-12-31T05:32:47.382Z,15.70
2022-12-31T05:33:47.164Z,15.72
2022-12-31T05:34:47.103Z,15.75
2022-12-31T05:35:47.243Z,15.78
2022-12-31T05:36:47.299Z,15.85
2022-12-31T05:37:47.116Z,15.89
2022-12-31T05:38:47.295Z,15.88
2022-12-31T05:39:47.099Z,15.86
2022-12-31T05:40:47.229Z,15.89
2022-12-31T05:41:47.177Z,15.88
2022-12-31T05:42:47.467Z,15.85
2022-12-31T05:43:47.104Z,15.85
2022-12-31T05:44:47.136Z,15.88
2022-12-31T05:45:47.215Z,15.92
2022-12-31T05:46:47.065Z,15.97
2022-12-31T05:47:47.052Z,15.97
2022-12-31T05:48:47.009Z,16.00
2022-12-31T05:49:47.226Z,16.03
2022-12-31T05:50:47.228Z,16.01
2022-12-31T05:51:46.985Z,16.00
2022-12-31T05:52:47.813Z,15.96
2022-12-31T05:53:47.030Z,15.97
2022-12-31T05:54:46.929Z,15.97
2022-12-31T05:55:46.931Z,15.96
2022-12-31T05:56:47.098Z,15.97
2022-12-31T05:57:46.921Z,15.99
2022-12-31T05:58:47.020Z,15.99
2022-12-31T05:59:46.888Z,16.00
2022-12-31T06:00:46.926Z,16.06
2022-12-31T06:01:47.139Z,16.09
2022-12-31T06:02:46.978Z,16.09
2022-12-31T06:03:46.988Z,16.07
2022-12-31T06:04:46.850Z,16.06
2022-12-31T06:05:46.840Z,16.07
2022-12-31T06:06:46.985Z,16.12
2022-12-31T06:07:46.849Z,16.20
2022-12-31T06:08:46.827Z,16.18
2022-12-31T06:09:47.019Z,16.22
2022-12-31T06:10:46.904Z,16.30
2022-12-31T06:11:46.855Z,16.30
2022-12-31T06:12:46.952Z,16.31
2022-12-31T06:13:46.778Z,16.26
2022-12-31T06:14:46.761Z,16.22
2022-12-31T06:15:46.826Z,16.23
2022-12-31T06:16:46.951Z,16.23
2022-12-31T06:17:46.936Z,16.23
2022-12-31T06:18:46.889Z,16.23
2022-12-31T06:19:47.377Z,16.20
2022-12-31T06:20:46.751Z,16.16
2022-12-31T06:21:46.695Z,16.14
2022-12-31T06:22:46.758Z,16.14
2022-12-31T06:23:46.792Z,16.12
2022-12-31T06:24:46.641Z,16.11
2022-12-31T06:25:47.012Z,16.14
2022-12-31T06:26:46.667Z,16.16
2022-12-31T06:27:46.612Z,16.15
2022-12-31T06:28:46.596Z,16.15
2022-12-31T06:29:46.826Z,16.12
2022-12-31T06:30:47.085Z,16.14
2022-12-31T06:31:46.613Z,16.14
2022-12-31T06:32:46.771Z,16.22
2022-12-31T06:33:46.570Z,16.26
2022-12-31T06:34:46.822Z,16.33
2022-12-31T06:35:46.674Z,16.30
2022-12-31T06:36:46.653Z,16.31
2022-12-31T06:37:46.484Z,16.33
2022-12-31T06:38:46.538Z,16.31
2022-12-31T06:39:46.497Z,16.31
2022-12-31T06:40:46.463Z,16.34
2022-12-31T06:41:46.484Z,16.38
2022-12-31T06:42:46.452Z,16.41
2022-12-31T06:43:46.440Z,16.49
2022-12-31T06:44:46.482Z,16.55
2022-12-31T06:45:46.445Z,16.55
2022-12-31T06:46:46.547Z,16.50
2022-12-31T06:47:46.404Z,16.49
2022-12-31T06:48:46.406Z,16.45
2022-12-31T06:49:46.464Z,16.41
2022-12-31T06:50:46.418Z,16.44
2022-12-31T06:51:46.457Z,16.45
2022-12-31T06:52:46.740Z,16.44
2022-12-31T06:53:46.372Z,16.41
2022-12-31T06:54:46.499Z,16.41
2022-12-31T06:55:46.513Z,16.37
2022-12-31T06:56:46.461Z,16.37
2022-12-31T06:57:46.314Z,16.37
2022-12-31T06:58:46.407Z,16.34
2022-12-31T06:59:46.312Z,16.34
2022-12-31T07:00:46.353Z,16.30
2022-12-31T07:01:46.526Z,16.23
2022-12-31T07:02:46.527Z,16.26
2022-12-31T07:03:46.579Z,16.30
2022-12-31T07:04:46.347Z,16.35
2022-12-31T07:05:46.445Z,16.40
2022-12-31T07:06:46.312Z,16.40
2022-12-31T07:07:46.352Z,16.48
2022-12-31T07:08:46.443Z,16.49
2022-12-31T07:09:46.213Z,16.52
2022-12-31T07:10:46.791Z,16.52
2022-12-31T07:11:46.160Z,16.50
2022-12-31T07:12:46.314Z,16.50
2022-12-31T07:13:46.417Z,16.50
2022-12-31T07:14:46.513Z,16.56
2022-12-31T07:15:46.429Z,16.53
2022-12-31T07:16:46.135Z,16.52
2022-12-31T07:17:46.344Z,16.53
2022-12-31T07:18:46.117Z,16.56
2022-12-31T07:19:46.097Z,16.55
2022-12-31T07:20:46.297Z,16.60
2022-12-31T07:21:46.282Z,16.63
2022-12-31T07:22:46.062Z,16.60
2022-12-31T07:23:46.366Z,16.62
2022-12-31T07:24:46.029Z,16.62
2022-12-31T07:25:46.035Z,16.62
2022-12-31T07:26:49.924Z,16.67
2022-12-31T07:27:46.002Z,16.63
2022-12-31T07:28:46.084Z,16.59
2022-12-31T07:29:46.082Z,16.59
2022-12-31T07:30:46.022Z,16.58
2022-12-31T07:31:46.070Z,16.53
2022-12-31T07:32:46.005Z,16.50
2022-12-31T07:33:45.982Z,16.44
2022-12-31T07:34:46.199Z,16.41
2022-12-31T07:35:45.938Z,16.41
2022-12-31T07:36:46.143Z,16.53
2022-12-31T07:37:45.903Z,16.58
2022-12-31T07:38:45.954Z,16.56
2022-12-31T07:39:46.025Z,16.58
2022-12-31T07:40:45.972Z,16.55
2022-12-31T07:41:46.081Z,16.50
2022-12-31T07:42:45.861Z,16.45
2022-12-31T07:43:45.837Z,16.48
2022-12-31T07:44:46.066Z,16.48
2022-12-31T07:45:45.847Z,16.45
2022-12-31T07:46:45.981Z,16.45
2022-12-31T07:47:45.959Z,16.45
2022-12-31T07:48:45.878Z,16.42
2022-12-31T07:49:45.798Z,16.42
2022-12-31T07:50:45.795Z,16.42
2022-12-31T07:51:45.796Z,16.45
2022-12-31T07:52:45.766Z,16.45
2022-12-31T07:53:45.740Z,16.44
2022-12-31T07:54:45.821Z,16.42
2022-12-31T07:55:45.735Z,16.38
2022-12-31T07:56:45.772Z,16.38
2022-12-31T07:57:45.873Z,16.40
2022-12-31T07:58:45.774Z,16.41
2022-12-31T07:59:45.867Z,16.42
2022-12-31T08:00:45.735Z,16.41
2022-12-31T08:01:45.925Z,16.38
2022-12-31T08:02:45.878Z,16.41
2022-12-31T08:03:45.667Z,16.41
2022-12-31T08:04:46.017Z,16.38
2022-12-31T08:05:45.623Z,16.41
2022-12-31T08:06:45.978Z,16.42
2022-12-31T08:07:45.622Z,16.45
2022-12-31T08:08:45.693Z,16.48
2022-12-31T08:09:46.070Z,16.50
2022-12-31T08:10:45.570Z,16.58
2022-12-31T08:11:45.795Z,16.58
2022-12-31T08:12:45.580Z,16.52
2022-12-31T08:13:45.747Z,16.49
2022-12-31T08:14:45.663Z,16.44
2022-12-31T08:15:45.537Z,16.45
2022-12-31T08:16:45.817Z,16.49
2022-12-31T08:17:45.636Z,16.50
2022-12-31T08:18:45.495Z,16.49
2022-12-31T08:19:45.471Z,16.48
2022-12-31T08:20:45.982Z,16.44
2022-12-31T08:21:45.619Z,16.45
2022-12-31T08:22:45.772Z,16.48
2022-12-31T08:23:45.469Z,16.48
2022-12-31T08:24:45.444Z,16.45
2022-12-31T08:25:45.423Z,16.45
2022-12-31T08:26:50.963Z,16.45
2022-12-31T08:27:45.396Z,16.45
2022-12-31T08:28:45.381Z,16.49
2022-12-31T08:29:45.374Z,16.55
2022-12-31T08:30:45.534Z,16.59
2022-12-31T08:31:45.490Z,16.60
2022-12-31T08:32:45.376Z,16.56
2022-12-31T08:33:45.337Z,16.60
2022-12-31T08:34:45.480Z,16.67
2022-12-31T08:35:45.306Z,16.78
2022-12-31T08:36:45.290Z,16.85
2022-12-31T08:37:45.282Z,16.86
2022-12-31T08:38:45.524Z,16.86
2022-12-31T08:39:45.310Z,16.81
2022-12-31T08:40:45.468Z,16.78
2022-12-31T08:41:45.465Z,16.71
2022-12-31T08:42:45.270Z,16.68
2022-12-31T08:43:45.248Z,16.70
2022-12-31T08:44:45.320Z,16.70
2022-12-31T08:45:45.250Z,16.71
2022-12-31T08:46:45.214Z,16.77
2022-12-31T08:47:45.278Z,16.77
2022-12-31T08:48:45.199Z,16.78
2022-12-31T08:49:45.208Z,16.80
2022-12-31T08:50:45.354Z,16.80
2022-12-31T08:51:45.372Z,16.78
2022-12-31T08:52:45.155Z,16.83
2022-12-31T08:53:45.168Z,16.81
2022-12-31T08:54:45.154Z,16.81
2022-12-31T08:55:45.358Z,16.77
2022-12-31T08:56:50.291Z,16.81
2022-12-31T08:57:45.080Z,16.81
2022-12-31T08:58:45.215Z,16.78
2022-12-31T08:59:45.429Z,16.80
2022-12-31T09:00:45.373Z,16.77
2022-12-31T09:01:45.090Z,16.80
2022-12-31T09:02:48.161Z,16.75
2022-12-31T09:03:45.137Z,16.81
2022-12-31T09:04:45.027Z,16.81
2022-12-31T09:05:45.040Z,16.78
2022-12-31T09:06:45.223Z,16.78
2022-12-31T09:07:45.218Z,16.77
2022-12-31T09:08:45.066Z,16.75
2022-12-31T09:09:45.078Z,16.74
2022-12-31T09:10:45.020Z,16.75
2022-12-31T09:11:44.990Z,16.74
2022-12-31T09:12:44.960Z,16.77
2022-12-31T09:13:44.920Z,16.77
2022-12-31T09:14:45.271Z,16.80
2022-12-31T09:15:44.907Z,16.80
2022-12-31T09:16:44.988Z,16.85
2022-12-31T09:17:45.037Z,16.86
2022-12-31T09:18:45.043Z,16.81
2022-12-31T09:19:44.913Z,16.75
2022-12-31T09:20:45.193Z,16.74
2022-12-31T09:21:44.898Z,16.75
2022-12-31T09:22:44.887Z,16.74
2022-12-31T09:23:45.180Z,16.71
2022-12-31T09:24:45.014Z,16.74
2022-12-31T09:25:44.834Z,16.74
2022-12-31T09:26:44.976Z,16.73
2022-12-31T09:27:44.940Z,16.74
2022-12-31T09:28:44.834Z,16.70
2022-12-31T09:29:44.785Z,16.71
2022-12-31T09:30:45.405Z,16.71
2022-12-31T09:31:45.018Z,16.73
2022-12-31T09:32:44.749Z,16.74
2022-12-31T09:33:44.779Z,16.75
2022-12-31T09:34:44.780Z,16.80
2022-12-31T09:35:44.799Z,16.86
2022-12-31T09:36:44.716Z,16.90
2022-12-31T09:37:44.766Z,16.89
2022-12-31T09:38:44.899Z,16.90
2022-12-31T09:39:44.845Z,16.86
2022-12-31T09:40:44.653Z,16.86
2022-12-31T09:41:44.820Z,16.86
2022-12-31T09:42:44.776Z,16.85
2022-12-31T09:43:44.621Z,16.89
2022-12-31T09:44:44.781Z,16.86
2022-12-31T09:45:44.626Z,16.86
2022-12-31T09:46:44.600Z,16.86
2022-12-31T09:47:44.552Z,16.86
2022-12-31T09:48:44.585Z,16.83
2022-12-31T09:49:45.104Z,16.85
2022-12-31T09:50:44.593Z,16.89
2022-12-31T09:51:45.180Z,16.89
2022-12-31T09:52:44.582Z,16.90
2022-12-31T09:53:44.536Z,16.93
2022-12-31T09:54:44.511Z,16.93
2022-12-31T09:55:44.513Z,16.92
2022-12-31T09:56:44.693Z,16.92
2022-12-31T09:57:44.590Z,16.96
2022-12-31T09:58:44.616Z,16.96
2022-12-31T09:59:45.025Z,16.96
2022-12-31T10:00:44.445Z,16.98
2022-12-31T10:01:44.617Z,16.92
2022-12-31T10:02:44.767Z,16.90
2022-12-31T10:03:44.431Z,16.89
2022-12-31T10:04:44.436Z,16.88
2022-12-31T10:05:44.571Z,16.89
2022-12-31T10:06:44.623Z,16.89
2022-12-31T10:07:50.414Z,16.99
2022-12-31T10:08:44.616Z,17.03
2022-12-31T10:09:44.711Z,17.00
2022-12-31T10:10:44.472Z,16.98
2022-12-31T10:11:44.528Z,16.96
2022-12-31T10:12:44.347Z,16.90
2022-12-31T10:13:44.351Z,16.93
2022-12-31T10:14:47.573Z,16.96
2022-12-31T10:15:44.511Z,17.03
2022-12-31T10:16:44.394Z,17.03
2022-12-31T10:17:44.326Z,17.03
2022-12-31T10:18:44.311Z,17.07
2022-12-31T10:19:44.410Z,17.10
2022-12-31T10:20:45.568Z,17.10
2022-12-31T10:21:44.317Z,17.08
2022-12-31T10:22:44.524Z,17.06
2022-12-31T10:23:44.318Z,17.04
2022-12-31T10:24:44.212Z,17.06
2022-12-31T10:25:44.264Z,17.07
2022-12-31T10:26:49.856Z,17.08
2022-12-31T10:27:44.182Z,17.11
2022-12-31T10:28:44.160Z,17.18
2022-12-31T10:29:44.238Z,17.22
2022-12-31T10:30:44.203Z,17.22
2022-12-31T10:31:44.136Z,17.28
2022-12-31T10:32:44.139Z,17.32
2022-12-31T10:33:44.098Z,17.33
2022-12-31T10:34:44.140Z,17.32
2022-12-31T10:35:44.199Z,17.32
2022-12-31T10:36:44.113Z,17.35
2022-12-31T10:37:44.142Z,17.35
2022-12-31T10:38:44.224Z,17.33
2022-12-31T10:39:44.062Z,17.33
2022-12-31T10:40:44.370Z,17.35
2022-12-31T10:41:44.117Z,17.35
2022-12-31T10:42:44.264Z,17.33
2022-12-31T10:43:44.082Z,17.33
2022-12-31T10:44:44.283Z,17.32
2022-12-31T10:45:44.246Z,17.29
2022-12-31T10:46:43.978Z,17.28
2022-12-31T10:47:44.070Z,17.30
2022-12-31T10:48:44.004Z,17.32
2022-12-31T10:49:44.003Z,17.32
2022-12-31T10:50:44.055Z,17.32
2022-12-31T10:51:44.047Z,17.36
2022-12-31T10:52:43.901Z,17.40
2022-12-31T10:53:44.076Z,17.43
2022-12-31T10:54:44.063Z,17.44
2022-12-31T10:55:44.055Z,17.46
2022-12-31T10:56:44.041Z,17.50
2022-12-31T10:57:43.869Z,17.51
2022-12-31T10:58:43.867Z,17.51
2022-12-31T10:59:43.874Z,17.47
2022-12-31T11:00:43.916Z,17.47
2022-12-31T11:01:43.898Z,17.48
2022-12-31T11:02:43.990Z,17.55
2022-12-31T11:03:44.439Z,17.57
2022-12-31T11:04:44.270Z,17.63
2022-12-31T11:05:43.851Z,17.64
2022-12-31T11:06:43.773Z,17.70
2022-12-31T11:07:43.841Z,17.74
2022-12-31T11:08:44.162Z,17.73
2022-12-31T11:09:43.738Z,17.73
2022-12-31T11:10:43.740Z,17.76
2022-12-31T11:11:43.772Z,17.79
2022-12-31T11:12:43.705Z,17.79
2022-12-31T11:13:43.814Z,17.78
2022-12-31T11:14:44.013Z,17.79
2022-12-31T11:15:48.345Z,17.81
2022-12-31T11:16:43.669Z,17.79
2022-12-31T11:17:44.055Z,17.74
2022-12-31T11:18:43.648Z,17.74
2022-12-31T11:19:43.621Z,17.73
2022-12-31T11:20:43.665Z,17.70
2022-12-31T11:21:43.630Z,17.69
2022-12-31T11:22:44.079Z,17.70
2022-12-31T11:23:43.654Z,17.71
2022-12-31T11:24:43.590Z,17.71
2022-12-31T11:25:43.775Z,17.73
2022-12-31T11:26:43.632Z,17.74
2022-12-31T11:27:47.660Z,17.71
2022-12-31T11:28:43.751Z,17.69
2022-12-31T11:29:43.573Z,17.67
2022-12-31T11:30:43.782Z,17.67
2022-12-31T11:31:43.562Z,17.66
2022-12-31T11:32:43.533Z,17.66
2022-12-31T11:33:48.540Z,17.66
2022-12-31T11:34:43.610Z,17.66
2022-12-31T11:35:43.572Z,17.69
2022-12-31T11:36:43.488Z,17.69
2022-12-31T11:37:43.462Z,17.69
2022-12-31T11:38:43.679Z,17.66
2022-12-31T11:39:43.596Z,17.67
2022-12-31T11:40:43.499Z,17.69
2022-12-31T11:41:43.453Z,17.69
2022-12-31T11:42:43.556Z,17.69
2022-12-31T11:43:43.437Z,17.63
2022-12-31T11:44:43.415Z,17.55
2022-12-31T11:45:50.255Z,17.51
2022-12-31T11:46:43.559Z,17.46
2022-12-31T11:48:20.127Z,17.44
2022-12-31T11:48:43.402Z,17.43
2022-12-31T11:49:43.466Z,17.43
2022-12-31T11:50:43.431Z,17.41
2022-12-31T11:51:50.017Z,17.40
2022-12-31T11:52:43.337Z,17.38
2022-12-31T11:53:43.392Z,17.33
2022-12-31T11:54:43.697Z,17.30
2022-12-31T11:55:43.546Z,17.32
2022-12-31T11:56:43.324Z,17.32
2022-12-31T11:57:43.271Z,17.32
2022-12-31T11:58:43.276Z,17.32
2022-12-31T11:59:43.237Z,17.30
2022-12-31T12:00:43.243Z,17.30
2022-12-31T12:01:43.446Z,17.29
2022-12-31T12:02:43.342Z,17.26
2022-12-31T12:03:43.287Z,17.28
2022-12-31T12:04:43.213Z,17.22
2022-12-31T12:05:43.204Z,17.25
2022-12-31T12:06:43.232Z,17.26
2022-12-31T12:07:43.290Z,17.30
2022-12-31T12:08:43.169Z,17.32
2022-12-31T12:09:43.148Z,17.33
2022-12-31T12:10:43.239Z,17.29
2022-12-31T12:11:43.262Z,17.28
2022-12-31T12:12:43.208Z,17.28
2022-12-31T12:13:43.166Z,17.25
2022-12-31T12:14:43.393Z,17.28
2022-12-31T12:15:43.246Z,17.35
2022-12-31T12:16:43.113Z,17.40
2022-12-31T12:17:43.228Z,17.43
2022-12-31T12:18:43.091Z,17.41
2022-12-31T12:19:43.140Z,17.41
2022-12-31T12:20:43.246Z,17.38
2022-12-31T12:21:43.017Z,17.35
2022-12-31T12:22:47.860Z,17.32
2022-12-31T12:23:42.998Z,17.30
2022-12-31T12:24:43.186Z,17.29
2022-12-31T12:25:43.013Z,17.25
2022-12-31T12:26:43.223Z,17.20
2022-12-31T12:27:43.160Z,17.25
2022-12-31T12:28:44.500Z,17.28
2022-12-31T12:29:42.924Z,17.29
2022-12-31T12:30:42.941Z,17.22
2022-12-31T12:31:43.087Z,17.15
2022-12-31T12:32:43.048Z,17.04
2022-12-31T12:33:42.929Z,16.90
2022-12-31T12:34:49.119Z,16.74
2022-12-31T12:35:43.086Z,16.62
2022-12-31T12:36:42.941Z,16.52
2022-12-31T12:37:42.968Z,16.41
2022-12-31T12:38:43.023Z,16.26
2022-12-31T12:39:42.967Z,16.18
2022-12-31T12:40:42.841Z,16.12
2022-12-31T12:41:42.849Z,16.04
2022-12-31T12:42:42.824Z,15.99
2022-12-31T12:43:42.918Z,15.85
2022-12-31T12:44:42.855Z,15.76
2022-12-31T12:45:44.297Z,15.79
2022-12-31T12:46:47.788Z,15.82
2022-12-31T12:47:42.875Z,15.78
2022-12-31T12:48:42.754Z,15.75
2022-12-31T12:49:42.839Z,15.74
2022-12-31T12:50:43.093Z,15.70
2022-12-31T12:51:42.737Z,15.67
2022-12-31T12:52:42.716Z,15.68